sensor_id;sensor_type;location;lat;lon;timestamp;pressure;altitude;pressure_sealevel;temperature;humidity
26043;BME280;13818;52.156;5.382;2023-02-12T00:00:43;103574.16;;;8.92;100.00
26043;BME280;13818;52.156;5.382;2023-02-12T00:03:10;103576.84;;;8.97;100.00
26043;BME280;13818;52.156;5.382;2023-02-12T00:05:37;103571.41;;;8.72;100.00
26043;BME280;13818;52.156;5.382;2023-02-12T00:08:05;103574.03;;;8.67;100.00
26043;BME280;13818;52.156;5.382;2023-02-12T00:10:31;103572.28;;;8.69;100.00
26043;BME280;13818;52.156;5.382;2023-02-12T00:12:58;103573.22;;;8.79;100.00
26043;BME280;13818;52.156;5.382;2023-02-12T00:15:24;103581.16;;;8.73;100.00
26043;BME280;13818;52.156;5.382;2023-02-12T00:17:52;103575.84;;;8.71;100.00
26043;BME280;13818;52.156;5.382;2023-02-12T00:20:19;103581.16;;;8.74;100.00
26043;BME280;13818;52.156;5.382;2023-02-12T00:22:47;103567.88;;;8.73;100.00
26043;BME280;13818;52.156;5.382;2023-02-12T00:25:15;103567.00;;;8.77;100.00
26043;BME280;13818;52.156;5.382;2023-02-12T00:27:43;103568.75;;;8.75;100.00
26043;BME280;13818;52.156;5.382;2023-02-12T00:30:10;103565.22;;;8.74;100.00
26043;BME280;13818;52.156;5.382;2023-02-12T00:32:37;103568.72;;;8.67;100.00
26043;BME280;13818;52.156;5.382;2023-02-12T00:35:05;103578.53;;;8.79;100.00
26043;BME280;13818;52.156;5.382;2023-02-12T00:37:32;103574.06;;;8.73;100.00
26043;BME280;13818;52.156;5.382;2023-02-12T00:39:58;103572.28;;;8.72;100.00
26043;BME280;13818;52.156;5.382;2023-02-12T00:42:27;103573.19;;;8.73;100.00
26043;BME280;13818;52.156;5.382;2023-02-12T00:44:54;103566.09;;;8.69;100.00
26043;BME280;13818;52.156;5.382;2023-02-12T00:47:20;103572.31;;;8.77;100.00
26043;BME280;13818;52.156;5.382;2023-02-12T00:49:47;103571.38;;;8.66;100.00
26043;BME280;13818;52.156;5.382;2023-02-12T00:52:13;103575.78;;;8.60;100.00
26043;BME280;13818;52.156;5.382;2023-02-12T00:54:40;103570.47;;;8.63;100.00
26043;BME280;13818;52.156;5.382;2023-02-12T00:57:06;103570.53;;;8.73;100.00
26043;BME280;13818;52.156;5.382;2023-02-12T00:59:34;103569.66;;;8.74;100.00
26043;BME280;13818;52.156;5.382;2023-02-12T01:02:04;103570.53;;;8.71;100.00
26043;BME280;13818;52.156;5.382;2023-02-12T01:04:30;103569.63;;;8.69;100.00
26043;BME280;13818;52.156;5.382;2023-02-12T01:06:57;103582.91;;;8.68;100.00
26043;BME280;13818;52.156;5.382;2023-02-12T01:09:24;103574.88;;;8.55;100.00
26043;BME280;13818;52.156;5.382;2023-02-12T01:11:50;103578.41;;;8.53;100.00
26043;BME280;13818;52.156;5.382;2023-02-12T01:14:16;103579.28;;;8.53;100.00
26043;BME280;13818;52.156;5.382;2023-02-12T01:16:44;103572.19;;;8.55;100.00
26043;BME280;13818;52.156;5.382;2023-02-12T01:19:11;103572.19;;;8.58;100.00
26043;BME280;13818;52.156;5.382;2023-02-12T01:21:37;103572.28;;;8.69;100.00
26043;BME280;13818;52.156;5.382;2023-02-12T01:24:04;103568.75;;;8.69;100.00
26043;BME280;13818;52.156;5.382;2023-02-12T01:26:31;103571.41;;;8.73;100.00
26043;BME280;13818;52.156;5.382;2023-02-12T01:28:59;103569.63;;;8.72;100.00
26043;BME280;13818;52.156;5.382;2023-02-12T01:31:28;103574.94;;;8.71;100.00
26043;BME280;13818;52.156;5.382;2023-02-12T01:33:57;103585.53;;;8.65;100.00
26043;BME280;13818;52.156;5.382;2023-02-12T01:36:25;103574.00;;;8.61;100.00
26043;BME280;13818;52.156;5.382;2023-02-12T01:38:52;103566.06;;;8.66;100.00
26043;BME280;13818;52.156;5.382;2023-02-12T01:41:21;103562.56;;;8.73;100.00
26043;BME280;13818;52.156;5.382;2023-02-12T01:44:06;103575.84;;;8.76;100.00
26043;BME280;13818;52.156;5.382;2023-02-12T01:46:33;103576.75;;;8.78;100.00
26043;BME280;13818;52.156;5.382;2023-02-12T01:49:02;103566.97;;;8.71;100.00
26043;BME280;13818;52.156;5.382;2023-02-12T01:51:30;103571.44;;;8.78;100.00
26043;BME280;13818;52.156;5.382;2023-02-12T01:53:59;103577.63;;;8.74;100.00
26043;BME280;13818;52.156;5.382;2023-02-12T01:56:28;103572.28;;;8.72;100.00
26043;BME280;13818;52.156;5.382;2023-02-12T01:58:55;103574.06;;;8.70;100.00
26043;BME280;13818;52.156;5.382;2023-02-12T02:01:24;103579.34;;;8.64;100.00
26043;BME280;13818;52.156;5.382;2023-02-12T02:03:56;103574.94;;;8.68;100.00
26043;BME280;13818;52.156;5.382;2023-02-12T02:06:26;103567.78;;;8.62;100.00
26043;BME280;13818;52.156;5.382;2023-02-12T02:08:53;103569.59;;;8.63;100.00
26043;BME280;13818;52.156;5.382;2023-02-12T02:11:21;103560.69;;;8.59;100.00
26043;BME280;13818;52.156;5.382;2023-02-12T02:14:05;103562.50;;;8.67;100.00
26043;BME280;13818;52.156;5.382;2023-02-12T02:16:56;103571.31;;;8.59;100.00
26043;BME280;13818;52.156;5.382;2023-02-12T02:19:40;103564.19;;;8.52;100.00
26043;BME280;13818;52.156;5.382;2023-02-12T02:22:23;103569.50;;;8.48;100.00
26043;BME280;13818;52.156;5.382;2023-02-12T02:27:56;103575.78;;;8.59;100.00
26043;BME280;13818;52.156;5.382;2023-02-12T02:30:33;103565.97;;;8.50;100.00
26043;BME280;13818;52.156;5.382;2023-02-12T02:33:24;103568.66;;;8.58;100.00
26043;BME280;13818;52.156;5.382;2023-02-12T02:35:56;103560.72;;;8.62;100.00
26043;BME280;13818;52.156;5.382;2023-02-12T02:38:35;103559.81;;;8.62;100.00
26043;BME280;13818;52.156;5.382;2023-02-12T02:41:06;103560.63;;;8.47;100.00
26043;BME280;13818;52.156;5.382;2023-02-12T02:43:37;103560.66;;;8.52;100.00
26043;BME280;13818;52.156;5.382;2023-02-12T02:46:10;103564.19;;;8.52;100.00
26043;BME280;13818;52.156;5.382;2023-02-12T02:48:42;103557.16;;;8.59;100.00
26043;BME280;13818;52.156;5.382;2023-02-12T02:51:14;103550.94;;;8.54;100.00
26043;BME280;13818;52.156;5.382;2023-02-12T02:53:46;103554.34;;;8.40;100.00
26043;BME280;13818;52.156;5.382;2023-02-12T02:56:18;103542.84;;;8.41;100.00
26043;BME280;13818;52.156;5.382;2023-02-12T02:58:50;103550.94;;;8.58;100.00
26043;BME280;13818;52.156;5.382;2023-02-12T03:01:23;103555.38;;;8.59;100.00
26043;BME280;13818;52.156;5.382;2023-02-12T03:03:53;103549.16;;;8.56;100.00
26043;BME280;13818;52.156;5.382;2023-02-12T03:06:26;103540.34;;;8.61;100.00
26043;BME280;13818;52.156;5.382;2023-02-12T03:08:58;103540.28;;;8.58;100.00
26043;BME280;13818;52.156;5.382;2023-02-12T03:11:29;103546.50;;;8.56;100.00
26043;BME280;13818;52.156;5.382;2023-02-12T03:14:02;103546.41;;;8.45;100.00
26043;BME280;13818;52.156;5.382;2023-02-12T03:16:33;103550.88;;;8.46;100.00
26043;BME280;13818;52.156;5.382;2023-02-12T03:19:04;103549.06;;;8.45;100.00
26043;BME280;13818;52.156;5.382;2023-02-12T03:21:36;103547.25;;;8.39;100.00
26043;BME280;13818;52.156;5.382;2023-02-12T03:24:10;103540.16;;;8.35;100.00
26043;BME280;13818;52.156;5.382;2023-02-12T03:26:42;103549.00;;;8.34;100.00
26043;BME280;13818;52.156;5.382;2023-02-12T03:29:11;103547.25;;;8.39;100.00
26043;BME280;13818;52.156;5.382;2023-02-12T03:31:47;103551.72;;;8.45;100.00
26043;BME280;13818;52.156;5.382;2023-02-12T03:34:23;103558.00;;;8.49;100.00
26043;BME280;13818;52.156;5.382;2023-02-12T03:36:54;103560.66;;;8.50;100.00
26043;BME280;13818;52.156;5.382;2023-02-12T03:39:27;103558.00;;;8.49;100.00
26043;BME280;13818;52.156;5.382;2023-02-12T03:42:01;103545.56;;;8.49;100.00
26043;BME280;13818;52.156;5.382;2023-02-12T03:44:42;103555.28;;;8.47;100.00
26043;BME280;13818;52.156;5.382;2023-02-12T03:47:18;103555.25;;;8.44;100.00
26043;BME280;13818;52.156;5.382;2023-02-12T03:49:50;103547.25;;;8.39;100.00
26043;BME280;13818;52.156;5.382;2023-02-12T03:52:18;103557.88;;;8.38;100.00
26043;BME280;13818;52.156;5.382;2023-02-12T03:54:45;103561.44;;;8.41;100.00
26043;BME280;13818;52.156;5.382;2023-02-12T03:57:14;103557.91;;;8.45;100.00
26043;BME280;13818;52.156;5.382;2023-02-12T03:59:43;103561.53;;;8.48;100.00
26043;BME280;13818;52.156;5.382;2023-02-12T04:02:11;103556.22;;;8.51;100.00
26043;BME280;13818;52.156;5.382;2023-02-12T04:04:39;103566.84;;;8.49;100.00
26043;BME280;13818;52.156;5.382;2023-02-12T04:07:06;103559.75;;;8.46;100.00
26043;BME280;13818;52.156;5.382;2023-02-12T04:09:33;103564.19;;;8.46;100.00
26043;BME280;13818;52.156;5.382;2023-02-12T04:12:29;103571.22;;;8.44;100.00
26043;BME280;13818;52.156;5.382;2023-02-12T04:15:08;103573.94;;;8.49;100.00
26043;BME280;13818;52.156;5.382;2023-02-12T04:17:45;103573.03;;;8.48;100.00
26043;BME280;13818;52.156;5.382;2023-02-12T04:20:29;103576.66;;;8.58;100.00
26043;BME280;13818;52.156;5.382;2023-02-12T04:23:09;103574.81;;;8.51;100.00
26043;BME280;13818;52.156;5.382;2023-02-12T04:25:45;103583.66;;;8.48;100.00
26043;BME280;13818;52.156;5.382;2023-02-12T04:28:24;103579.28;;;8.53;100.00
26043;BME280;13818;52.156;5.382;2023-02-12T04:30:56;103582.78;;;8.46;100.00
26043;BME280;13818;52.156;5.382;2023-02-12T04:33:27;103595.97;;;8.34;100.00
26043;BME280;13818;52.156;5.382;2023-02-12T04:36:02;103588.91;;;8.42;100.00
26043;BME280;13818;52.156;5.382;2023-02-12T04:38:34;103591.69;;;8.56;100.00
26043;BME280;13818;52.156;5.382;2023-02-12T04:41:04;103589.97;;;8.66;100.00
26043;BME280;13818;52.156;5.382;2023-02-12T04:43:32;103592.66;;;8.66;100.00
26043;BME280;13818;52.156;5.382;2023-02-12T04:46:00;103594.44;;;8.67;100.00
26043;BME280;13818;52.156;5.382;2023-02-12T04:48:27;103597.09;;;8.65;100.00
26043;BME280;13818;52.156;5.382;2023-02-12T04:50:53;103597.06;;;8.62;100.00
26043;BME280;13818;52.156;5.382;2023-02-12T04:53:21;103597.97;;;8.62;100.00
26043;BME280;13818;52.156;5.382;2023-02-12T04:55:47;103598.84;;;8.60;100.00
26043;BME280;13818;52.156;5.382;2023-02-12T04:58:15;103592.63;;;8.62;100.00
26043;BME280;13818;52.156;5.382;2023-02-12T05:00:43;103593.56;;;8.69;100.00
26043;BME280;13818;52.156;5.382;2023-02-12T05:03:09;103587.31;;;8.62;100.00
26043;BME280;13818;52.156;5.382;2023-02-12T05:05:36;103594.34;;;8.54;100.00
26043;BME280;13818;52.156;5.382;2023-02-12T05:08:02;103587.34;;;8.69;100.00
26043;BME280;13818;52.156;5.382;2023-02-12T05:10:30;103594.44;;;8.68;100.00
26043;BME280;13818;52.156;5.382;2023-02-12T05:12:56;103601.53;;;8.66;100.00
26043;BME280;13818;52.156;5.382;2023-02-12T05:15:23;103596.22;;;8.66;100.00
26043;BME280;13818;52.156;5.382;2023-02-12T05:17:49;103597.91;;;8.61;100.00
26043;BME280;13818;52.156;5.382;2023-02-12T05:20:16;103595.31;;;8.62;100.00
26043;BME280;13818;52.156;5.382;2023-02-12T05:22:43;103592.59;;;8.56;100.00
26043;BME280;13818;52.156;5.382;2023-02-12T05:25:09;103597.91;;;8.56;100.00
26043;BME280;13818;52.156;5.382;2023-02-12T05:27:37;103598.84;;;8.61;100.00
26043;BME280;13818;52.156;5.382;2023-02-12T05:30:04;103602.38;;;8.59;100.00
26043;BME280;13818;52.156;5.382;2023-02-12T05:32:31;103598.78;;;8.54;100.00
26043;BME280;13818;52.156;5.382;2023-02-12T05:34:57;103598.78;;;8.54;100.00
26043;BME280;13818;52.156;5.382;2023-02-12T05:37:24;103595.22;;;8.52;100.00
26043;BME280;13818;52.156;5.382;2023-02-12T05:39:50;103601.41;;;8.46;100.00
26043;BME280;13818;52.156;5.382;2023-02-12T05:42:18;103605.81;;;8.47;100.00
26043;BME280;13818;52.156;5.382;2023-02-12T05:44:46;103607.59;;;8.48;100.00
26043;BME280;13818;52.156;5.382;2023-02-12T05:47:12;103604.09;;;8.54;100.00
26043;BME280;13818;52.156;5.382;2023-02-12T05:49:39;103604.09;;;8.55;100.00
26043;BME280;13818;52.156;5.382;2023-02-12T05:52:07;103606.72;;;8.46;100.00
26043;BME280;13818;52.156;5.382;2023-02-12T05:54:33;103606.72;;;8.48;100.00
26043;BME280;13818;52.156;5.382;2023-02-12T05:57:01;103610.25;;;8.46;100.00
26043;BME280;13818;52.156;5.382;2023-02-12T05:59:27;103606.78;;;8.58;100.00
26043;BME280;13818;52.156;5.382;2023-02-12T06:01:55;103612.13;;;8.65;100.00
26043;BME280;13818;52.156;5.382;2023-02-12T06:04:23;103613.91;;;8.62;100.00
26043;BME280;13818;52.156;5.382;2023-02-12T06:06:50;103605.94;;;8.64;100.00
26043;BME280;13818;52.156;5.382;2023-02-12T06:09:17;103603.28;;;8.62;100.00
26043;BME280;13818;52.156;5.382;2023-02-12T06:11:44;103602.28;;;8.48;100.00
26043;BME280;13818;52.156;5.382;2023-02-12T06:14:13;103612.09;;;8.55;100.00
26043;BME280;13818;52.156;5.382;2023-02-12T06:16:42;103607.69;;;8.63;100.00
26043;BME280;13818;52.156;5.382;2023-02-12T06:19:11;103607.69;;;8.63;100.00
26043;BME280;13818;52.156;5.382;2023-02-12T06:21:37;103613.91;;;8.64;100.00
26043;BME280;13818;52.156;5.382;2023-02-12T06:24:04;103600.59;;;8.61;100.00
26043;BME280;13818;52.156;5.382;2023-02-12T06:26:30;103598.88;;;8.66;100.00
26043;BME280;13818;52.156;5.382;2023-02-12T06:28:57;103597.09;;;8.65;100.00
26043;BME280;13818;52.156;5.382;2023-02-12T06:31:26;103599.75;;;8.68;100.00
26043;BME280;13818;52.156;5.382;2023-02-12T06:33:53;103605.06;;;8.68;100.00
26043;BME280;13818;52.156;5.382;2023-02-12T06:36:21;103606.84;;;8.68;100.00
26043;BME280;13818;52.156;5.382;2023-02-12T06:38:48;103605.97;;;8.73;100.00
26043;BME280;13818;52.156;5.382;2023-02-12T06:41:15;103607.75;;;8.76;100.00
26043;BME280;13818;52.156;5.382;2023-02-12T06:43:42;103606.81;;;8.65;100.00
26043;BME280;13818;52.156;5.382;2023-02-12T06:46:08;103621.84;;;8.56;100.00
26043;BME280;13818;52.156;5.382;2023-02-12T06:48:35;103615.63;;;8.56;100.00
26043;BME280;13818;52.156;5.382;2023-02-12T06:51:07;103619.16;;;8.52;100.00
26043;BME280;13818;52.156;5.382;2023-02-12T06:53:35;103614.56;;;8.38;100.00
26043;BME280;13818;52.156;5.382;2023-02-12T06:56:03;103619.78;;;8.23;100.00
26043;BME280;13818;52.156;5.382;2023-02-12T06:58:30;103619.00;;;8.35;100.00
26043;BME280;13818;52.156;5.382;2023-02-12T07:01:06;103624.28;;;8.30;100.00
26043;BME280;13818;52.156;5.382;2023-02-12T07:03:34;103624.28;;;8.30;100.00
26043;BME280;13818;52.156;5.382;2023-02-12T07:06:04;103634.09;;;8.39;100.00
26043;BME280;13818;52.156;5.382;2023-02-12T07:08:30;103624.31;;;8.35;100.00
26043;BME280;13818;52.156;5.382;2023-02-12T07:10:58;103630.47;;;8.29;100.00
26043;BME280;13818;52.156;5.382;2023-02-12T07:13:24;103622.44;;;8.21;100.00
26043;BME280;13818;52.156;5.382;2023-02-12T07:15:51;103633.00;;;8.18;100.00
26043;BME280;13818;52.156;5.382;2023-02-12T07:18:17;103637.47;;;8.18;100.00
26043;BME280;13818;52.156;5.382;2023-02-12T07:20:44;103634.78;;;8.16;100.00
26043;BME280;13818;52.156;5.382;2023-02-12T07:23:10;103636.59;;;8.22;100.00
26043;BME280;13818;52.156;5.382;2023-02-12T07:25:37;103640.03;;;8.10;100.00
26043;BME280;13818;52.156;5.382;2023-02-12T07:28:05;103638.34;;;8.18;100.00
26043;BME280;13818;52.156;5.382;2023-02-12T07:30:31;103653.50;;;8.30;100.00
26043;BME280;13818;52.156;5.382;2023-02-12T07:32:58;103649.16;;;8.41;100.00
26043;BME280;13818;52.156;5.382;2023-02-12T07:35:24;103656.28;;;8.42;100.00
26043;BME280;13818;52.156;5.382;2023-02-12T07:37:51;103651.91;;;8.49;100.00
26043;BME280;13818;52.156;5.382;2023-02-12T07:40:17;103652.78;;;8.48;100.00
26043;BME280;13818;52.156;5.382;2023-02-12T07:42:44;103661.53;;;8.38;100.00
26043;BME280;13818;52.156;5.382;2023-02-12T07:45:13;103659.69;;;8.30;100.00
26043;BME280;13818;52.156;5.382;2023-02-12T07:47:40;103662.41;;;8.37;100.00
26043;BME280;13818;52.156;5.382;2023-02-12T07:50:07;103654.50;;;8.44;100.00
26043;BME280;13818;52.156;5.382;2023-02-12T07:52:34;103663.47;;;8.53;100.00
26043;BME280;13818;52.156;5.382;2023-02-12T07:55:01;103664.16;;;8.31;100.00
26043;BME280;13818;52.156;5.382;2023-02-12T07:57:28;103672.16;;;8.38;100.00
26043;BME280;13818;52.156;5.382;2023-02-12T07:59:54;103677.50;;;8.38;100.00
26043;BME280;13818;52.156;5.382;2023-02-12T08:02:22;103668.59;;;8.36;100.00
26043;BME280;13818;52.156;5.382;2023-02-12T08:04:54;103666.81;;;8.33;100.00
26043;BME280;13818;52.156;5.382;2023-02-12T08:07:20;103675.72;;;8.38;100.00
26043;BME280;13818;52.156;5.382;2023-02-12T08:09:47;103677.63;;;8.52;100.00
26043;BME280;13818;52.156;5.382;2023-02-12T08:12:13;103682.84;;;8.44;100.00
26043;BME280;13818;52.156;5.382;2023-02-12T08:14:40;103681.16;;;8.46;100.00
26043;BME280;13818;52.156;5.382;2023-02-12T08:17:07;103688.13;;;8.38;100.00
26043;BME280;13818;52.156;5.382;2023-02-12T08:19:35;103680.25;;;8.47;100.00
26043;BME280;13818;52.156;5.382;2023-02-12T08:22:01;103694.47;;;8.51;100.00
26043;BME280;13818;52.156;5.382;2023-02-12T08:24:29;103681.22;;;8.55;100.00
26043;BME280;13818;52.156;5.382;2023-02-12T08:26:55;103693.75;;;8.69;100.00
26043;BME280;13818;52.156;5.382;2023-02-12T08:29:23;103691.84;;;8.55;100.00
26043;BME280;13818;52.156;5.382;2023-02-12T08:31:54;103697.16;;;8.55;100.00
26043;BME280;13818;52.156;5.382;2023-02-12T08:34:23;103699.88;;;8.61;100.00
26043;BME280;13818;52.156;5.382;2023-02-12T08:36:53;103694.50;;;8.57;100.00
26043;BME280;13818;52.156;5.382;2023-02-12T08:39:20;103706.94;;;8.58;100.00
26043;BME280;13818;52.156;5.382;2023-02-12T08:41:47;103704.19;;;8.47;100.00
26043;BME280;13818;52.156;5.382;2023-02-12T08:44:14;103708.66;;;8.54;100.00
26043;BME280;13818;52.156;5.382;2023-02-12T08:46:43;103717.63;;;8.62;100.00
26043;BME280;13818;52.156;5.382;2023-02-12T08:49:13;103712.41;;;8.79;100.00
26043;BME280;13818;52.156;5.382;2023-02-12T08:51:41;103708.88;;;8.79;100.00
26043;BME280;13818;52.156;5.382;2023-02-12T08:54:11;103722.22;;;8.90;100.00
26043;BME280;13818;52.156;5.382;2023-02-12T08:56:38;103716.75;;;8.67;100.00
26043;BME280;13818;52.156;5.382;2023-02-12T08:59:06;103707.97;;;8.74;100.00
26043;BME280;13818;52.156;5.382;2023-02-12T09:01:34;103720.34;;;8.69;100.00
26043;BME280;13818;52.156;5.382;2023-02-12T09:04:03;103712.41;;;8.78;100.00
26043;BME280;13818;52.156;5.382;2023-02-12T09:06:31;103715.91;;;8.71;100.00
26043;BME280;13818;52.156;5.382;2023-02-12T09:08:58;103711.59;;;8.85;100.00
26043;BME280;13818;52.156;5.382;2023-02-12T09:11:28;103723.97;;;8.85;100.00
26043;BME280;13818;52.156;5.382;2023-02-12T09:13:57;103712.50;;;8.89;100.00
26043;BME280;13818;52.156;5.382;2023-02-12T09:16:24;103726.69;;;8.91;100.00
26043;BME280;13818;52.156;5.382;2023-02-12T09:18:51;103716.00;;;8.85;100.00
26043;BME280;13818;52.156;5.382;2023-02-12T09:21:18;103721.41;;;8.97;100.00
26043;BME280;13818;52.156;5.382;2023-02-12T09:23:45;103718.81;;;9.08;100.00
26043;BME280;13818;52.156;5.382;2023-02-12T09:26:14;103725.91;;;9.09;100.00
26043;BME280;13818;52.156;5.382;2023-02-12T09:28:43;103727.63;;;9.02;100.00
26043;BME280;13818;52.156;5.382;2023-02-12T09:31:10;103729.44;;;9.06;100.00
26043;BME280;13818;52.156;5.382;2023-02-12T09:33:38;103732.13;;;9.08;100.00
26043;BME280;13818;52.156;5.382;2023-02-12T09:36:07;103727.69;;;9.10;100.00
26043;BME280;13818;52.156;5.382;2023-02-12T09:38:33;103725.91;;;9.07;100.00
26043;BME280;13818;52.156;5.382;2023-02-12T09:41:13;103726.00;;;9.24;100.00
26043;BME280;13818;52.156;5.382;2023-02-12T09:43:52;103724.19;;;9.16;100.00
26043;BME280;13818;52.156;5.382;2023-02-12T09:46:25;103721.56;;;9.23;100.00
26043;BME280;13818;52.156;5.382;2023-02-12T09:49:02;103726.00;;;9.27;100.00
26043;BME280;13818;52.156;5.382;2023-02-12T09:51:33;103727.72;;;9.18;100.00
26043;BME280;13818;52.156;5.382;2023-02-12T09:54:04;103718.81;;;9.12;100.00
26043;BME280;13818;52.156;5.382;2023-02-12T09:56:33;103725.06;;;9.15;100.00
26043;BME280;13818;52.156;5.382;2023-02-12T09:59:04;103724.19;;;9.19;100.00
26043;BME280;13818;52.156;5.382;2023-02-12T10:01:31;103734.03;;;9.35;100.00
26043;BME280;13818;52.156;5.382;2023-02-12T10:03:58;103733.16;;;9.38;100.00
26043;BME280;13818;52.156;5.382;2023-02-12T10:06:26;103724.28;;;9.39;100.00
26043;BME280;13818;52.156;5.382;2023-02-12T10:09:19;103727.81;;;9.27;100.00
26043;BME280;13818;52.156;5.382;2023-02-12T10:11:59;103719.81;;;9.32;100.00
26043;BME280;13818;52.156;5.382;2023-02-12T10:14:40;103721.56;;;9.26;100.00
26043;BME280;13818;52.156;5.382;2023-02-12T10:17:16;103722.53;;;9.42;100.00
26043;BME280;13818;52.156;5.382;2023-02-12T10:19:56;103730.56;;;9.49;100.00
26043;BME280;13818;52.156;5.382;2023-02-12T10:22:34;103727.00;;;9.43;100.00
26043;BME280;13818;52.156;5.382;2023-02-12T10:25:12;103730.50;;;9.35;100.00
26043;BME280;13818;52.156;5.382;2023-02-12T10:27:48;103720.81;;;9.52;100.00
26043;BME280;13818;52.156;5.382;2023-02-12T10:30:19;103713.72;;;9.60;100.00
26043;BME280;13818;52.156;5.382;2023-02-12T10:32:50;103719.13;;;9.71;100.00
26043;BME280;13818;52.156;5.382;2023-02-12T10:35:20;103720.91;;;9.71;100.00
26043;BME280;13818;52.156;5.382;2023-02-12T10:37:50;103732.44;;;9.81;100.00
26043;BME280;13818;52.156;5.382;2023-02-12T10:40:22;103728.00;;;9.69;100.00
26043;BME280;13818;52.156;5.382;2023-02-12T10:42:51;103720.88;;;9.69;100.00
26043;BME280;13818;52.156;5.382;2023-02-12T10:45:21;103724.44;;;9.70;100.00
26043;BME280;13818;52.156;5.382;2023-02-12T10:47:51;103730.63;;;9.64;100.00
26043;BME280;13818;52.156;5.382;2023-02-12T10:50:24;103719.97;;;9.66;100.00
26043;BME280;13818;52.156;5.382;2023-02-12T10:52:57;103722.66;;;9.67;100.00
26043;BME280;13818;52.156;5.382;2023-02-12T10:55:28;103725.28;;;9.64;100.00
26043;BME280;13818;52.156;5.382;2023-02-12T10:58:03;103732.47;;;9.77;100.00
26043;BME280;13818;52.156;5.382;2023-02-12T11:00:33;103726.25;;;9.83;100.00
26043;BME280;13818;52.156;5.382;2023-02-12T11:03:04;103721.81;;;9.84;100.00
26043;BME280;13818;52.156;5.382;2023-02-12T11:05:33;103718.25;;;9.79;100.00
26043;BME280;13818;52.156;5.382;2023-02-12T11:08:01;103722.72;;;9.83;100.00
26043;BME280;13818;52.156;5.382;2023-02-12T11:10:30;103715.63;;;9.85;100.00
26043;BME280;13818;52.156;5.382;2023-02-12T11:12:57;103725.41;;;9.98;100.00
26043;BME280;13818;52.156;5.382;2023-02-12T11:15:26;103716.56;;;10.02;100.00
26043;BME280;13818;52.156;5.382;2023-02-12T11:17:59;103712.09;;;9.97;100.00
26043;BME280;13818;52.156;5.382;2023-02-12T11:20:28;103716.50;;;9.87;100.00
26043;BME280;13818;52.156;5.382;2023-02-12T11:22:57;103710.28;;;9.89;100.00
26043;BME280;13818;52.156;5.382;2023-02-12T11:25:27;103710.25;;;9.82;100.00
26043;BME280;13818;52.156;5.382;2023-02-12T11:28:05;103706.69;;;9.70;100.00
26043;BME280;13818;52.156;5.382;2023-02-12T11:30:48;103700.50;;;9.76;100.00
26043;BME280;13818;52.156;5.382;2023-02-12T11:33:22;103709.41;;;9.90;100.00
26043;BME280;13818;52.156;5.382;2023-02-12T11:35:54;103702.31;;;9.91;100.00
26043;BME280;13818;52.156;5.382;2023-02-12T11:38:27;103712.06;;;9.87;100.00
26043;BME280;13818;52.156;5.382;2023-02-12T11:40:58;103717.41;;;9.89;100.00
26043;BME280;13818;52.156;5.382;2023-02-12T11:43:26;103705.88;;;9.99;100.00
26043;BME280;13818;52.156;5.382;2023-02-12T11:45:54;103695.19;;;9.94;100.00
26043;BME280;13818;52.156;5.382;2023-02-12T11:48:25;103688.97;;;9.94;100.00
26043;BME280;13818;52.156;5.382;2023-02-12T11:50:54;103693.41;;;9.87;100.00
26043;BME280;13818;52.156;5.382;2023-02-12T11:53:26;103699.66;;;9.99;100.00
26043;BME280;13818;52.156;5.382;2023-02-12T11:55:56;103699.69;;;10.05;100.00
26043;BME280;13818;52.156;5.382;2023-02-12T11:58:25;103699.69;;;10.05;100.00
26043;BME280;13818;52.156;5.382;2023-02-12T12:00:57;103696.09;;;10.03;100.00
26043;BME280;13818;52.156;5.382;2023-02-12T12:03:29;103698.75;;;9.97;100.00
26043;BME280;13818;52.156;5.382;2023-02-12T12:06:04;103691.66;;;10.00;100.00
26043;BME280;13818;52.156;5.382;2023-02-12T12:08:38;103694.31;;;9.92;100.00
26043;BME280;13818;52.156;5.382;2023-02-12T12:11:11;103685.47;;;10.18;100.00
26043;BME280;13818;52.156;5.382;2023-02-12T12:13:43;103681.00;;;10.06;100.00
26043;BME280;13818;52.156;5.382;2023-02-12T12:16:17;103668.59;;;10.02;100.00
26043;BME280;13818;52.156;5.382;2023-02-12T12:19:10;103679.25;;;10.04;100.00
26043;BME280;13818;52.156;5.382;2023-02-12T12:22:03;103673.00;;;10.08;100.00
26043;BME280;13818;52.156;5.382;2023-02-12T12:24:37;103670.34;;;9.91;100.00
26043;BME280;13818;52.156;5.382;2023-02-12T12:27:11;103677.44;;;10.00;100.00
26043;BME280;13818;52.156;5.382;2023-02-12T12:30:04;103670.38;;;10.19;100.00
26043;BME280;13818;52.156;5.382;2023-02-12T12:32:35;103669.50;;;10.28;100.00
26043;BME280;13818;52.156;5.382;2023-02-12T12:35:08;103667.72;;;10.26;100.00
26043;BME280;13818;52.156;5.382;2023-02-12T12:37:40;103661.53;;;10.41;100.00
26043;BME280;13818;52.156;5.382;2023-02-12T12:40:28;103667.72;;;10.36;100.00
26043;BME280;13818;52.156;5.382;2023-02-12T12:43:07;103657.97;;;10.38;100.00
26043;BME280;13818;52.156;5.382;2023-02-12T12:46:03;103658.84;;;10.51;100.00
26043;BME280;13818;52.156;5.382;2023-02-12T12:48:43;103673.94;;;10.60;100.00
26043;BME280;13818;52.156;5.382;2023-02-12T12:51:25;103663.28;;;10.49;100.00
26043;BME280;13818;52.156;5.382;2023-02-12T12:54:01;103651.72;;;10.37;100.00
26043;BME280;13818;52.156;5.382;2023-02-12T12:56:42;103649.03;;;10.33;100.00
26043;BME280;13818;52.156;5.382;2023-02-12T12:59:26;103649.91;;;10.35;100.00
26043;BME280;13818;52.156;5.382;2023-02-12T13:02:36;103652.59;;;10.33;100.00
26043;BME280;13818;52.156;5.382;2023-02-12T13:05:57;103660.63;;;10.56;100.00
26043;BME280;13818;52.156;5.382;2023-02-12T13:08:36;103651.72;;;10.50;100.00
26043;BME280;13818;52.156;5.382;2023-02-12T13:11:14;103647.25;;;10.55;100.00